KDRA/DRA METAR and TAF weather

Enter ICAO airport designator
Station Type Date Time Source
KDRA METAR 2022/06/28 08:53 UTC NOAA

KDRA 280853Z AUTO VRB04KT 10SM CLR 29/03 A3007 RMK AO2 SLP120 T02890028 53001


Station Type Date Time Source
KDRA Decoded METAR 2022/06/28 08:53 UTC NOAA

DESERT ROCK AIRPORT, NV, United States (KDRA) 36-38N 116-02W 1006M
Jun 28, 2022 - 04:53 AM EDT / 2022.06.28 0853 UTC
Wind: Variable at 5 MPH (4 KT):0
Visibility: 10 mile(s):0
Sky conditions: clear
Temperature: 84.0 F (28.9 C)
Dew Point: 37.0 F (2.8 C)
Relative Humidity: 18%
Pressure (altimeter): 30.07 in. Hg (1018 hPa)
Pressure tendency: 0.00 inches (0.1 hPa) higher than three hours ago
ob: KDRA 280853Z AUTO VRB04KT 10SM CLR 29/03 A3007 RMK AO2 SLP120 T02890028 53001
cycle: 9

Station Type Date Time Source
KDRA TAF 2011/12/07 06:36 UTC NOAA

TAF KDRA 070532Z 0706/0806 VRB04KT P6SM SKC

Example: see airport list